createdAt,value
2018-07-21T00:00:17.266Z,0
2018-07-21T00:01:33.203Z,0
2018-07-21T00:02:50.113Z,0
2018-07-21T00:04:06.023Z,0
2018-07-21T00:05:21.909Z,0
2018-07-21T00:06:37.816Z,0
2018-07-21T00:07:53.709Z,0
2018-07-21T00:09:09.681Z,0
2018-07-21T00:10:25.615Z,0
2018-07-21T00:11:41.510Z,0
2018-07-21T00:12:57.444Z,0
2018-07-21T00:14:13.390Z,0
2018-07-21T00:15:29.345Z,0
2018-07-21T00:16:45.252Z,0
2018-07-21T00:18:01.159Z,0
2018-07-21T00:19:17.061Z,0
2018-07-21T00:20:32.963Z,0
2018-07-21T00:21:48.871Z,0
2018-07-21T00:23:04.819Z,0
2018-07-21T00:24:20.735Z,0
2018-07-21T00:25:36.616Z,0
2018-07-21T00:26:52.527Z,0
2018-07-21T00:28:08.449Z,0
2018-07-21T00:29:24.353Z,0
2018-07-21T00:30:40.268Z,0
2018-07-21T00:31:56.223Z,0
2018-07-21T00:33:12.151Z,0
2018-07-21T00:34:28.034Z,0
2018-07-21T00:35:43.913Z,0
2018-07-21T00:36:59.784Z,0
2018-07-21T00:38:15.677Z,0
2018-07-21T00:39:31.579Z,0
2018-07-21T00:40:47.520Z,0
2018-07-21T00:42:03.365Z,0
2018-07-21T00:43:19.300Z,0
2018-07-21T00:44:35.143Z,0
2018-07-21T00:45:51.047Z,0
2018-07-21T00:47:06.950Z,0
2018-07-21T00:48:22.857Z,0
2018-07-21T00:49:38.793Z,0
2018-07-21T00:50:54.722Z,0
2018-07-21T00:52:10.630Z,0
2018-07-21T00:53:26.523Z,0
2018-07-21T00:54:42.398Z,0
2018-07-21T00:55:58.303Z,0
2018-07-21T00:57:14.256Z,0
2018-07-21T00:58:30.147Z,0
2018-07-21T00:59:46.050Z,0
2018-07-21T01:01:02.011Z,0
2018-07-21T01:02:18.042Z,0
2018-07-21T01:03:33.932Z,0
2018-07-21T01:04:49.869Z,0
2018-07-21T01:06:05.768Z,0
2018-07-21T01:07:21.692Z,0
2018-07-21T01:08:37.582Z,0
2018-07-21T01:09:53.475Z,0
2018-07-21T01:11:09.478Z,0
2018-07-21T01:12:25.367Z,0
2018-07-21T01:13:41.297Z,0
2018-07-21T01:14:57.251Z,0
2018-07-21T01:16:13.184Z,0
2018-07-21T01:17:29.095Z,0
2018-07-21T01:18:44.996Z,0
2018-07-21T01:20:00.870Z,0
2018-07-21T01:21:16.826Z,0
2018-07-21T01:22:32.722Z,0
2018-07-21T01:23:48.605Z,0
2018-07-21T01:25:04.465Z,0
2018-07-21T01:26:20.363Z,0
2018-07-21T01:27:36.266Z,0
2018-07-21T01:28:52.144Z,0
2018-07-21T01:30:08.040Z,0
2018-07-21T01:31:23.975Z,0
2018-07-21T01:32:39.853Z,0
2018-07-21T01:33:55.718Z,0
2018-07-21T01:35:11.616Z,0
2018-07-21T01:36:27.669Z,0
2018-07-21T01:37:43.601Z,0
2018-07-21T01:38:59.511Z,0
2018-07-21T01:40:15.409Z,0
2018-07-21T01:41:31.289Z,0
2018-07-21T01:42:47.181Z,0
2018-07-21T01:44:03.070Z,0
2018-07-21T01:45:18.926Z,0
2018-07-21T01:46:34.807Z,0
2018-07-21T01:47:50.689Z,0
2018-07-21T01:49:06.585Z,0
2018-07-21T01:50:22.454Z,0
2018-07-21T01:51:38.370Z,0
2018-07-21T01:52:54.223Z,0
2018-07-21T01:54:10.093Z,0
2018-07-21T01:55:25.982Z,0
2018-07-21T01:56:41.915Z,0
2018-07-21T01:57:57.811Z,0
2018-07-21T01:59:13.697Z,0
2018-07-21T02:00:29.605Z,0
2018-07-21T02:01:45.501Z,0
2018-07-21T02:03:01.351Z,0
2018-07-21T02:04:17.228Z,0
2018-07-21T02:05:33.083Z,0
2018-07-21T02:06:48.969Z,0
2018-07-21T02:08:04.831Z,0
2018-07-21T02:09:20.712Z,0
2018-07-21T02:10:36.607Z,0
2018-07-21T02:11:52.531Z,0
2018-07-21T02:13:08.432Z,0
2018-07-21T02:14:24.322Z,0
2018-07-21T02:15:40.201Z,0
2018-07-21T02:16:57.112Z,0
2018-07-21T02:18:13.015Z,0
2018-07-21T02:19:28.945Z,0
2018-07-21T02:20:44.831Z,0
2018-07-21T02:22:00.708Z,0
2018-07-21T02:23:16.625Z,0
2018-07-21T02:24:32.592Z,0
2018-07-21T02:25:48.484Z,0
2018-07-21T02:27:04.375Z,0
2018-07-21T02:28:20.222Z,0
2018-07-21T02:29:36.109Z,0
2018-07-21T02:30:51.970Z,0
2018-07-21T02:32:07.847Z,0
2018-07-21T02:33:23.813Z,0
2018-07-21T02:34:39.746Z,0
2018-07-21T02:35:55.673Z,0
2018-07-21T02:37:11.586Z,0
2018-07-21T02:38:27.622Z,0
2018-07-21T02:39:43.576Z,0
2018-07-21T02:40:59.501Z,0
2018-07-21T02:42:15.444Z,0
2018-07-21T02:43:31.401Z,0
2018-07-21T02:44:47.323Z,0
2018-07-21T02:46:03.207Z,0
2018-07-21T02:47:19.093Z,0
2018-07-21T02:48:35.990Z,0
2018-07-21T02:49:51.878Z,0
2018-07-21T02:51:07.767Z,0
2018-07-21T02:52:23.663Z,0
2018-07-21T02:53:40.510Z,0
2018-07-21T02:54:56.407Z,0
2018-07-21T02:56:12.303Z,0
2018-07-21T02:57:28.165Z,0
2018-07-21T02:58:44.035Z,0
2018-07-21T02:59:59.938Z,0
2018-07-21T03:01:15.835Z,0
2018-07-21T03:02:31.707Z,0
2018-07-21T03:03:47.576Z,0
2018-07-21T03:05:03.495Z,0
2018-07-21T03:06:19.352Z,0
2018-07-21T03:07:36.242Z,0
2018-07-21T03:08:52.101Z,0
2018-07-21T03:10:08.097Z,0
2018-07-21T03:11:23.896Z,0
2018-07-21T03:12:39.776Z,1
2018-07-21T03:13:55.665Z,1
2018-07-21T03:15:11.584Z,1
2018-07-21T03:16:27.481Z,1
2018-07-21T03:17:43.357Z,1
2018-07-21T03:18:59.214Z,1
2018-07-21T03:20:15.097Z,1
2018-07-21T03:21:30.966Z,0
2018-07-21T03:22:46.818Z,1
2018-07-21T03:24:02.704Z,1
2018-07-21T03:25:18.584Z,1
2018-07-21T03:26:34.488Z,1
2018-07-21T03:27:50.405Z,1
2018-07-21T03:29:06.281Z,2
2018-07-21T03:30:22.146Z,2
2018-07-21T03:31:38.022Z,3
2018-07-21T03:32:53.893Z,3
2018-07-21T03:34:09.762Z,3
2018-07-21T03:35:25.665Z,4
2018-07-21T03:36:41.530Z,5
2018-07-21T03:37:57.427Z,5
2018-07-21T03:39:13.316Z,6
2018-07-21T03:40:29.280Z,6
2018-07-21T03:41:45.086Z,7
2018-07-21T03:43:00.986Z,8
2018-07-21T03:44:16.877Z,10
2018-07-21T03:45:32.765Z,10
2018-07-21T03:46:48.672Z,12
2018-07-21T03:48:04.599Z,14
2018-07-21T03:49:20.494Z,16
2018-07-21T03:50:36.407Z,19
2018-07-21T03:51:52.270Z,21
2018-07-21T03:53:08.153Z,24
2018-07-21T03:54:24.075Z,27
2018-07-21T03:55:39.988Z,31
2018-07-21T03:56:55.913Z,35
2018-07-21T03:58:11.825Z,38
2018-07-21T03:59:27.762Z,43
2018-07-21T04:00:43.673Z,46
2018-07-21T04:01:59.566Z,50
2018-07-21T04:03:15.439Z,55
2018-07-21T04:04:31.343Z,59
2018-07-21T04:05:47.262Z,66
2018-07-21T04:07:03.148Z,73
2018-07-21T04:08:19.010Z,80
2018-07-21T04:09:34.933Z,86
2018-07-21T04:10:50.819Z,92
2018-07-21T04:12:06.704Z,98
2018-07-21T04:13:22.591Z,104
2018-07-21T04:14:38.482Z,112
2018-07-21T04:15:54.397Z,120
2018-07-21T04:17:10.268Z,129
2018-07-21T04:18:26.159Z,138
2018-07-21T04:19:42.069Z,144
2018-07-21T04:20:57.953Z,145
2018-07-21T04:22:13.839Z,146
2018-07-21T04:23:29.772Z,147
2018-07-21T04:24:45.672Z,148
2018-07-21T04:26:01.536Z,153
2018-07-21T04:27:17.417Z,160
2018-07-21T04:28:33.310Z,168
2018-07-21T04:29:49.225Z,177
2018-07-21T04:31:05.101Z,186
2018-07-21T04:32:20.961Z,194
2018-07-21T04:33:36.850Z,199
2018-07-21T04:34:52.769Z,202
2018-07-21T04:36:09.624Z,204
2018-07-21T04:37:25.470Z,203
2018-07-21T04:38:41.326Z,202
2018-07-21T04:39:57.227Z,201
2018-07-21T04:41:13.125Z,203
2018-07-21T04:42:29.024Z,206
2018-07-21T04:43:44.910Z,214
2018-07-21T04:45:00.787Z,220
2018-07-21T04:46:16.680Z,226
2018-07-21T04:47:32.571Z,229
2018-07-21T04:48:48.466Z,230
2018-07-21T04:50:04.344Z,234
2018-07-21T04:51:20.259Z,241
2018-07-21T04:52:36.181Z,251
2018-07-21T04:53:52.148Z,262
2018-07-21T04:55:07.980Z,271
2018-07-21T04:56:23.898Z,282
2018-07-21T04:57:39.790Z,292
2018-07-21T04:58:55.662Z,299
2018-07-21T05:00:11.566Z,307
2018-07-21T05:01:27.455Z,319
2018-07-21T05:02:43.360Z,328
2018-07-21T05:03:59.257Z,342
2018-07-21T05:05:15.149Z,351
2018-07-21T05:06:31.060Z,348
2018-07-21T05:07:46.961Z,345
2018-07-21T05:09:02.833Z,343
2018-07-21T05:10:18.730Z,339
2018-07-21T05:11:34.696Z,340
2018-07-21T05:12:50.606Z,331
2018-07-21T05:14:06.532Z,323
2018-07-21T05:15:22.437Z,317
2018-07-21T05:16:38.330Z,318
2018-07-21T05:17:54.236Z,325
2018-07-21T05:19:10.122Z,324
2018-07-21T05:20:26.023Z,322
2018-07-21T05:21:41.928Z,319
2018-07-21T05:22:57.805Z,319
2018-07-21T05:24:13.731Z,328
2018-07-21T05:25:29.596Z,359
2018-07-21T05:26:45.487Z,425
2018-07-21T05:28:01.358Z,512
2018-07-21T05:29:18.107Z,565
2018-07-21T05:30:34.284Z,519
2018-07-21T05:31:50.192Z,495
2018-07-21T05:33:06.083Z,502
2018-07-21T05:34:21.999Z,525
2018-07-21T05:35:37.880Z,558
2018-07-21T05:36:53.791Z,613
2018-07-21T05:38:09.752Z,664
2018-07-21T05:39:25.647Z,698
2018-07-21T05:40:41.523Z,721
2018-07-21T05:41:57.410Z,726
2018-07-21T05:43:13.271Z,697
2018-07-21T05:44:29.181Z,686
2018-07-21T05:45:45.078Z,696
2018-07-21T05:47:00.930Z,712
2018-07-21T05:48:16.799Z,756
2018-07-21T05:49:32.654Z,795
2018-07-21T05:50:48.527Z,789
2018-07-21T05:52:04.459Z,773
2018-07-21T05:53:20.333Z,775
2018-07-21T05:54:36.225Z,843
2018-07-21T05:55:52.478Z,948
2018-07-21T05:57:08.430Z,1000
2018-07-21T05:58:24.318Z,990
2018-07-21T05:59:40.309Z,971
2018-07-21T06:00:56.293Z,962
2018-07-21T06:02:12.306Z,984
2018-07-21T06:03:28.212Z,1021
2018-07-21T06:04:44.171Z,1080
2018-07-21T06:06:00.071Z,1168
2018-07-21T06:07:15.983Z,1252
2018-07-21T06:10:12.560Z,1292
2018-07-21T06:11:28.465Z,1280
2018-07-21T06:12:44.458Z,1206
2018-07-21T06:14:00.360Z,1144
2018-07-21T06:15:16.336Z,1128
2018-07-21T06:16:32.200Z,1123
2018-07-21T06:17:48.095Z,1113
2018-07-21T06:19:04.120Z,1136
2018-07-21T06:20:20.224Z,1188
2018-07-21T06:21:36.349Z,1270
2018-07-21T06:22:52.648Z,1388
2018-07-21T06:24:08.838Z,1569
2018-07-21T06:25:24.737Z,1745
2018-07-21T06:26:40.648Z,1893
2018-07-21T06:27:56.630Z,2024
2018-07-21T06:29:13.628Z,2149
2018-07-21T06:30:29.533Z,2293
2018-07-21T06:31:45.773Z,2392
2018-07-21T06:33:01.664Z,2426
2018-07-21T06:34:17.578Z,2445
2018-07-21T06:35:34.548Z,2481
2018-07-21T06:36:50.523Z,2497
2018-07-21T06:38:06.434Z,2497
2018-07-21T06:39:22.359Z,2489
2018-07-21T06:40:38.273Z,2498
2018-07-21T06:41:54.228Z,2494
2018-07-21T06:43:10.159Z,2484
2018-07-21T06:44:26.042Z,2428
2018-07-21T06:45:41.936Z,2384
2018-07-21T06:46:57.887Z,2375
2018-07-21T06:48:13.840Z,2389
2018-07-21T06:49:29.830Z,2404
2018-07-21T06:50:45.696Z,2383
2018-07-21T06:52:01.646Z,2351
2018-07-21T06:53:17.612Z,2307
2018-07-21T06:54:33.577Z,2279
2018-07-21T06:55:49.521Z,2273
2018-07-21T06:57:05.604Z,2219
2018-07-21T06:58:21.781Z,2293
2018-07-21T06:59:37.690Z,2420
2018-07-21T07:00:53.638Z,2521
2018-07-21T07:02:10.595Z,2641
2018-07-21T07:03:26.560Z,2772
2018-07-21T07:06:24.382Z,3163
2018-07-21T07:07:40.299Z,3320
2018-07-21T07:08:56.229Z,3372
2018-07-21T07:10:12.147Z,3334
2018-07-21T07:11:28.036Z,3220
2018-07-21T07:12:43.939Z,3108
2018-07-21T07:13:59.857Z,3039
2018-07-21T07:15:15.787Z,3002
2018-07-21T07:16:31.689Z,2963
2018-07-21T07:17:47.606Z,2949
2018-07-21T07:19:03.533Z,2978
2018-07-21T07:20:19.499Z,2973
2018-07-21T07:21:35.428Z,2921
2018-07-21T07:22:51.288Z,2836
2018-07-21T07:24:07.205Z,2752
2018-07-21T07:25:23.116Z,2692
2018-07-21T07:26:39.008Z,2693
2018-07-21T07:27:54.922Z,2732
2018-07-21T07:29:10.857Z,2639
2018-07-21T07:30:26.765Z,2600
2018-07-21T07:31:42.712Z,2695
2018-07-21T07:32:58.650Z,2757
2018-07-21T07:34:14.617Z,2711
2018-07-21T07:35:30.576Z,2568
2018-07-21T07:36:46.551Z,2486
2018-07-21T07:38:02.520Z,2401
2018-07-21T07:39:18.417Z,2379
2018-07-21T07:40:34.349Z,2487
2018-07-21T07:41:50.236Z,2541
2018-07-21T07:43:06.178Z,2642
2018-07-21T07:44:22.086Z,2720
2018-07-21T07:45:37.955Z,2738
2018-07-21T07:46:53.881Z,2770
2018-07-21T07:48:09.867Z,2861
2018-07-21T07:49:25.792Z,2927
2018-07-21T07:50:41.703Z,3093
2018-07-21T07:51:57.728Z,3398
2018-07-21T07:53:14.791Z,3670
2018-07-21T07:54:30.770Z,3932
2018-07-21T07:55:46.729Z,3957
2018-07-21T07:57:02.730Z,3707
2018-07-21T07:58:18.635Z,3446
2018-07-21T07:59:34.557Z,3031
2018-07-21T08:00:50.504Z,2751
2018-07-21T08:02:06.494Z,2528
2018-07-21T08:03:22.431Z,2424
2018-07-21T08:04:38.390Z,2481
2018-07-21T08:05:54.327Z,2560
2018-07-21T08:07:10.330Z,2505
2018-07-21T08:08:26.295Z,2520
2018-07-21T08:09:42.216Z,2559
2018-07-21T08:10:58.156Z,2456
2018-07-21T08:12:14.197Z,2428
2018-07-21T08:13:30.163Z,2528
2018-07-21T08:14:46.086Z,2364
2018-07-21T08:16:02.081Z,2283
2018-07-21T08:17:18.037Z,2252
2018-07-21T08:18:33.983Z,2076
2018-07-21T08:24:27.153Z,2651
2018-07-21T08:28:39.871Z,5582
2018-07-21T08:30:13.776Z,5276
2018-07-21T08:31:29.760Z,4848
2018-07-21T08:39:04.145Z,5152
2018-07-21T08:43:41.533Z,5164
2018-07-21T08:47:54.041Z,5024
2018-07-21T08:49:09.972Z,4926
2018-07-21T08:50:26.910Z,4972
2018-07-21T08:51:42.893Z,5100
2018-07-21T08:52:58.877Z,5220
2018-07-21T08:54:14.843Z,5220
2018-07-21T08:55:30.742Z,5365
2018-07-21T08:56:46.679Z,5531
2018-07-21T08:58:03.444Z,5508
2018-07-21T08:59:19.372Z,5419
2018-07-21T09:00:35.325Z,5449
2018-07-21T09:01:51.283Z,5825
2018-07-21T09:03:08.277Z,6164
2018-07-21T09:04:24.278Z,6408
2018-07-21T09:05:40.343Z,6305
2018-07-21T09:06:56.255Z,6278
2018-07-21T09:08:12.263Z,6004
2018-07-21T09:09:28.254Z,5771
2018-07-21T09:10:44.210Z,5597
2018-07-21T09:12:00.157Z,5716
2018-07-21T09:13:16.171Z,6218
2018-07-21T09:14:32.143Z,7051
2018-07-21T09:15:48.143Z,7564
2018-07-21T09:17:04.112Z,7306
2018-07-21T09:18:20.092Z,7229
2018-07-21T09:19:36.127Z,6479
2018-07-21T09:20:52.092Z,8744
2018-07-21T09:22:08.037Z,9013
2018-07-21T09:23:24.056Z,9237
2018-07-21T09:24:39.982Z,9338
2018-07-21T09:25:56.019Z,9403
2018-07-21T09:27:12.022Z,9684
2018-07-21T09:28:28.058Z,9858
2018-07-21T09:29:44.030Z,10144
2018-07-21T09:30:59.994Z,10430
2018-07-21T09:32:15.941Z,10671
2018-07-21T09:33:31.879Z,10731
2018-07-21T09:34:47.812Z,10732
2018-07-21T09:36:03.756Z,10772
2018-07-21T09:37:19.676Z,8666
2018-07-21T09:38:35.620Z,10194
2018-07-21T09:39:51.589Z,9779
2018-07-21T09:41:07.544Z,9684
2018-07-21T09:42:23.468Z,11636
2018-07-21T09:43:39.432Z,11657
2018-07-21T09:44:55.370Z,10628
2018-07-21T09:46:11.351Z,10030
2018-07-21T09:47:27.250Z,10281
2018-07-21T09:48:43.161Z,9687
2018-07-21T09:49:59.090Z,9598
2018-07-21T09:51:15.048Z,12274
2018-07-21T09:52:30.982Z,12388
2018-07-21T09:53:46.897Z,12286
2018-07-21T09:55:02.897Z,12067
2018-07-21T09:56:18.876Z,11832
2018-07-21T09:57:34.846Z,11826
2018-07-21T09:58:50.783Z,11944
2018-07-21T10:00:06.741Z,12083
2018-07-21T10:01:22.698Z,12076
2018-07-21T10:02:38.620Z,12152
2018-07-21T10:03:54.612Z,12304
2018-07-21T10:05:10.539Z,12483
2018-07-21T10:06:26.420Z,12755
2018-07-21T10:07:42.383Z,12892
2018-07-21T10:08:58.329Z,13050
2018-07-21T10:10:14.302Z,13166
2018-07-21T10:11:30.237Z,13438
2018-07-21T10:12:46.176Z,13588
2018-07-21T10:14:02.084Z,13596
2018-07-21T10:15:18.046Z,13614
2018-07-21T10:16:33.948Z,13465
2018-07-21T10:17:49.880Z,13130
2018-07-21T10:19:05.786Z,12975
2018-07-21T10:20:21.741Z,12844
2018-07-21T10:21:37.858Z,12855
2018-07-21T10:22:54.083Z,12976
2018-07-21T10:24:10.211Z,13041
2018-07-21T10:25:26.185Z,13122
2018-07-21T10:26:42.142Z,13378
2018-07-21T10:27:58.124Z,13481
2018-07-21T10:29:14.087Z,13281
2018-07-21T10:30:30.038Z,12852
2018-07-21T10:31:46.023Z,12842
2018-07-21T10:33:02.015Z,13051
2018-07-21T10:34:17.947Z,13170
2018-07-21T10:35:33.885Z,13383
2018-07-21T10:36:49.801Z,13433
2018-07-21T10:38:05.763Z,13272
2018-07-21T10:39:21.695Z,13064
2018-07-21T10:40:37.614Z,12898
2018-07-21T10:41:53.549Z,12839
2018-07-21T10:43:09.549Z,12849
2018-07-21T10:44:25.533Z,12842
2018-07-21T10:45:41.516Z,12787
2018-07-21T10:46:57.661Z,12624
2018-07-21T10:49:55.442Z,12018
2018-07-21T10:51:11.572Z,11477
2018-07-21T10:52:27.555Z,10903
2018-07-21T10:53:43.477Z,10358
2018-07-21T10:54:59.391Z,9880
2018-07-21T10:56:15.360Z,9439
2018-07-21T10:57:31.312Z,9159
2018-07-21T10:58:47.208Z,9064
2018-07-21T11:00:03.137Z,9133
2018-07-21T11:01:19.133Z,9289
2018-07-21T11:02:35.111Z,9222
2018-07-21T11:03:51.003Z,9181
2018-07-21T11:05:06.988Z,9105
2018-07-21T11:06:23.350Z,9143
2018-07-21T11:07:39.355Z,9348
2018-07-21T11:08:55.350Z,9654
2018-07-21T11:10:11.372Z,10222
2018-07-21T11:11:27.351Z,11696
2018-07-21T11:12:43.348Z,12140
2018-07-21T11:13:59.282Z,12179
2018-07-21T11:15:15.304Z,11505
2018-07-21T11:16:31.119Z,11696
2018-07-21T11:17:47.101Z,11102
2018-07-21T11:19:03.033Z,11320
2018-07-21T11:20:18.970Z,10669
2018-07-21T11:21:34.955Z,9227
2018-07-21T11:22:50.899Z,8930
2018-07-21T11:24:06.845Z,9512
2018-07-21T11:25:22.749Z,8185
2018-07-21T11:26:38.781Z,7676
2018-07-21T11:27:54.770Z,7274
2018-07-21T11:29:10.752Z,6857
2018-07-21T11:30:26.709Z,6507
2018-07-21T11:31:42.789Z,6237
2018-07-21T11:32:58.709Z,5918
2018-07-21T11:34:14.710Z,5757
2018-07-21T11:35:30.770Z,5742
2018-07-21T11:36:46.724Z,5816
2018-07-21T11:38:03.150Z,5787
2018-07-21T11:39:19.523Z,5785
2018-07-21T11:40:35.450Z,5870
2018-07-21T11:41:51.358Z,5976
2018-07-21T11:43:07.317Z,6066
2018-07-21T11:44:23.324Z,6171
2018-07-21T11:45:39.238Z,6300
2018-07-21T11:46:55.183Z,6473
2018-07-21T11:48:11.096Z,6665
2018-07-21T11:51:07.613Z,7288
2018-07-21T11:52:23.579Z,7484
2018-07-21T11:53:39.629Z,7827
2018-07-21T11:54:55.564Z,8259
2018-07-21T11:56:11.486Z,8789
2018-07-21T11:57:27.422Z,9239
2018-07-21T11:58:43.363Z,9745
2018-07-21T11:59:59.305Z,10242
2018-07-21T12:01:15.250Z,10639
2018-07-21T12:02:31.189Z,10917
2018-07-21T12:03:47.124Z,11547
2018-07-21T12:05:03.082Z,11135
2018-07-21T12:06:19.053Z,10846
2018-07-21T12:07:35.000Z,10486
2018-07-21T12:08:50.927Z,9620
2018-07-21T12:10:06.851Z,9030
2018-07-21T12:11:22.811Z,8528
2018-07-21T12:12:38.742Z,8103
2018-07-21T12:13:54.685Z,7722
2018-07-21T12:15:10.649Z,7361
2018-07-21T12:16:26.568Z,6985
2018-07-21T12:17:42.518Z,6886
2018-07-21T12:18:58.466Z,6889
2018-07-21T12:20:14.443Z,6905
2018-07-21T12:21:30.344Z,6979
2018-07-21T12:22:46.270Z,7246
2018-07-21T12:24:02.184Z,7688
2018-07-21T12:25:18.140Z,8304
2018-07-21T12:26:34.126Z,8981
2018-07-21T12:27:50.011Z,9641
2018-07-21T12:29:05.915Z,10440
2018-07-21T12:30:21.833Z,10861
2018-07-21T12:31:37.816Z,11713
2018-07-21T12:32:53.752Z,12670
2018-07-21T12:34:09.773Z,13503
2018-07-21T12:35:25.688Z,13867
2018-07-21T12:36:41.659Z,13995
2018-07-21T12:37:57.560Z,13773
2018-07-21T12:39:13.558Z,13523
2018-07-21T12:40:29.494Z,13218
2018-07-21T12:41:45.427Z,12402
2018-07-21T12:43:01.439Z,12018
2018-07-21T12:44:17.441Z,11872
2018-07-21T12:45:33.342Z,12044
2018-07-21T12:46:49.242Z,11758
2018-07-21T12:48:05.159Z,11704
2018-07-21T12:49:21.072Z,11626
2018-07-21T12:52:17.561Z,11837
2018-07-21T12:53:33.453Z,11919
2018-07-21T12:54:49.433Z,12070
2018-07-21T12:56:05.338Z,12027
2018-07-21T12:57:21.255Z,11617
2018-07-21T12:58:37.184Z,11422
2018-07-21T12:59:53.166Z,11734
2018-07-21T13:01:09.083Z,11750
2018-07-21T13:02:25.029Z,11720
2018-07-21T13:03:41.003Z,11642
2018-07-21T13:04:57.050Z,11564
2018-07-21T13:06:12.976Z,11817
2018-07-21T13:07:28.941Z,11758
2018-07-21T13:08:44.953Z,11836
2018-07-21T13:10:01.014Z,11872
2018-07-21T13:11:16.986Z,11603
2018-07-21T13:12:32.930Z,11370
2018-07-21T13:13:48.838Z,10939
2018-07-21T13:15:04.827Z,10982
2018-07-21T13:16:20.761Z,11255
2018-07-21T13:17:36.725Z,11724
2018-07-21T13:18:52.717Z,11753
2018-07-21T13:20:08.668Z,12004
2018-07-21T13:21:24.605Z,12445
2018-07-21T13:22:40.564Z,12558
2018-07-21T13:23:56.533Z,12716
2018-07-21T13:25:12.787Z,12754
2018-07-21T13:26:29.517Z,12831
2018-07-21T13:27:46.704Z,12726
2018-07-21T13:29:02.616Z,12811
2018-07-21T13:30:18.548Z,12616
2018-07-21T13:31:34.800Z,12524
2018-07-21T13:32:50.841Z,12447
2018-07-21T13:34:06.805Z,12513
2018-07-21T13:35:22.719Z,12437
2018-07-21T13:36:38.654Z,12223
2018-07-21T13:37:54.621Z,11916
2018-07-21T13:39:10.563Z,11875
2018-07-21T13:40:26.523Z,11876
2018-07-21T13:41:42.452Z,11895
2018-07-21T13:42:58.465Z,12014
2018-07-21T13:44:14.393Z,12026
2018-07-21T13:45:30.455Z,11937
2018-07-21T13:46:46.407Z,11905
2018-07-21T13:48:02.317Z,12132
2018-07-21T13:49:18.312Z,12417
2018-07-21T13:50:34.216Z,12431
2018-07-21T13:51:50.160Z,12354
2018-07-21T13:53:06.113Z,12359
2018-07-21T13:54:22.026Z,12184
2018-07-21T13:55:37.999Z,12049
2018-07-21T13:56:53.945Z,11871
2018-07-21T13:58:09.928Z,11769
2018-07-21T13:59:25.855Z,11666
2018-07-21T14:00:41.843Z,11575
2018-07-21T14:01:57.726Z,11477
2018-07-21T14:03:13.703Z,11310
2018-07-21T14:04:29.633Z,11157
2018-07-21T14:05:45.560Z,10963
2018-07-21T14:07:01.484Z,10790
2018-07-21T14:08:17.461Z,10489
2018-07-21T14:09:33.456Z,10154
2018-07-21T14:10:49.352Z,9752
2018-07-21T14:12:05.277Z,9345
2018-07-21T14:13:21.270Z,8849
2018-07-21T14:14:37.243Z,8599
2018-07-21T14:15:53.292Z,8434
2018-07-21T14:17:09.148Z,8444
2018-07-21T14:18:25.131Z,8233
2018-07-21T14:19:41.142Z,8107
2018-07-21T14:20:57.165Z,8076
2018-07-21T14:22:13.127Z,8052
2018-07-21T14:23:29.124Z,8017
2018-07-21T14:24:45.128Z,7990
2018-07-21T14:26:01.100Z,7740
2018-07-21T14:27:17.025Z,7467
2018-07-21T14:28:32.970Z,7097
2018-07-21T14:29:49.036Z,7037
2018-07-21T14:31:04.946Z,7003
2018-07-21T14:32:20.889Z,7031
2018-07-21T14:33:36.868Z,7101
2018-07-21T14:34:52.896Z,6888
2018-07-21T14:36:09.006Z,6743
2018-07-21T14:37:24.783Z,6542
2018-07-21T14:38:40.766Z,6634
2018-07-21T14:39:56.690Z,6765
2018-07-21T14:41:12.652Z,7178
2018-07-21T14:42:28.584Z,7772
2018-07-21T14:43:44.511Z,8410
2018-07-21T14:45:00.397Z,8586
2018-07-21T14:46:16.435Z,8361
2018-07-21T14:47:32.387Z,8136
2018-07-21T14:48:48.385Z,7977
2018-07-21T14:50:04.244Z,8077
2018-07-21T14:51:20.139Z,8320
2018-07-21T14:52:37.030Z,8646
2018-07-21T14:53:53.012Z,8958
2018-07-21T14:55:08.997Z,9363
2018-07-21T14:56:24.952Z,9651
2018-07-21T14:57:40.939Z,9521
2018-07-21T14:58:56.859Z,9092
2018-07-21T15:00:12.983Z,8672
2018-07-21T15:01:29.034Z,7924
2018-07-21T15:02:44.881Z,7464
2018-07-21T15:04:00.844Z,7189
2018-07-21T15:05:16.819Z,6853
2018-07-21T15:06:33.173Z,6329
2018-07-21T15:07:49.477Z,5886
2018-07-21T15:09:05.461Z,5447
2018-07-21T15:10:21.446Z,5135
2018-07-21T15:11:37.403Z,4846
2018-07-21T15:12:53.323Z,4618
2018-07-21T15:14:09.332Z,4510
2018-07-21T15:15:25.315Z,4465
2018-07-21T15:16:41.315Z,4440
2018-07-21T15:17:57.177Z,4510
2018-07-21T15:19:13.124Z,4578
2018-07-21T15:20:29.094Z,4630
2018-07-21T15:21:45.045Z,4684
2018-07-21T15:23:01.401Z,4700
2018-07-21T15:24:17.369Z,4719
2018-07-21T15:25:33.368Z,4622
2018-07-21T15:26:49.359Z,4630
2018-07-21T15:28:05.368Z,4584
2018-07-21T15:29:21.350Z,4528
2018-07-21T15:30:37.267Z,4453
2018-07-21T15:31:53.181Z,4409
2018-07-21T15:33:09.079Z,4357
2018-07-21T15:34:25.031Z,4178
2018-07-21T15:35:41.128Z,3957
2018-07-21T15:36:57.125Z,3847
2018-07-21T15:38:13.434Z,3787
2018-07-21T15:39:29.348Z,3644
2018-07-21T15:40:45.391Z,3508
2018-07-21T15:42:01.340Z,3398
2018-07-21T15:43:17.339Z,3378
2018-07-21T15:44:33.353Z,3424
2018-07-21T15:45:49.338Z,3522
2018-07-21T15:47:05.233Z,3633
2018-07-21T15:48:21.163Z,3770
2018-07-21T15:49:37.083Z,3830
2018-07-21T15:50:53.059Z,3856
2018-07-21T15:52:09.000Z,3822
2018-07-21T15:53:24.974Z,3792
2018-07-21T15:54:40.961Z,3781
2018-07-21T15:55:56.912Z,3771
2018-07-21T15:57:12.899Z,3748
2018-07-21T15:58:28.904Z,3729
2018-07-21T15:59:44.910Z,3719
2018-07-21T16:01:00.828Z,3702
2018-07-21T16:02:16.863Z,3660
2018-07-21T16:03:32.817Z,3619
2018-07-21T16:04:48.792Z,3611
2018-07-21T16:06:04.748Z,3649
2018-07-21T16:07:20.665Z,3675
2018-07-21T16:10:17.146Z,3687
2018-07-21T16:11:33.113Z,3640
2018-07-21T16:12:49.092Z,3622
2018-07-21T16:14:05.048Z,3592
2018-07-21T16:15:21.035Z,3552
2018-07-21T16:16:37.005Z,3510
2018-07-21T16:17:52.951Z,3463
2018-07-21T16:19:08.896Z,3393
2018-07-21T16:20:24.827Z,3291
2018-07-21T16:21:40.757Z,3196
2018-07-21T16:22:56.691Z,3093
2018-07-21T16:24:12.612Z,3007
2018-07-21T16:25:28.607Z,2953
2018-07-21T16:26:44.636Z,2927
2018-07-21T16:28:00.791Z,2935
2018-07-21T16:29:16.603Z,2952
2018-07-21T16:30:32.623Z,2973
2018-07-21T16:31:48.650Z,2967
2018-07-21T16:33:04.623Z,2949
2018-07-21T16:34:20.655Z,2930
2018-07-21T16:35:36.618Z,2927
2018-07-21T16:36:52.638Z,2955
2018-07-21T16:38:08.612Z,2991
2018-07-21T16:39:24.557Z,3021
2018-07-21T16:40:40.546Z,3037
2018-07-21T16:41:56.511Z,3026
2018-07-21T16:43:12.530Z,2990
2018-07-21T16:44:28.548Z,2945
2018-07-21T16:45:44.655Z,2904
2018-07-21T16:47:00.628Z,2855
2018-07-21T16:48:17.450Z,2802
2018-07-21T16:49:33.445Z,2774
2018-07-21T16:50:49.458Z,2744
2018-07-21T16:52:04.428Z,2700
2018-07-21T16:53:20.365Z,2650
2018-07-21T16:54:36.379Z,2571
2018-07-21T16:55:52.373Z,2492
2018-07-21T16:57:08.352Z,2398
2018-07-21T16:58:24.350Z,2296
2018-07-21T16:59:40.414Z,2189
2018-07-21T17:00:56.388Z,2054
2018-07-21T17:02:12.368Z,1903
2018-07-21T17:03:28.348Z,1783
2018-07-21T17:04:44.338Z,1715
2018-07-21T17:06:00.375Z,1650
2018-07-21T17:07:16.341Z,1524
2018-07-21T17:08:32.408Z,1436
2018-07-21T17:09:48.531Z,1400
2018-07-21T17:11:04.542Z,1344
2018-07-21T17:12:20.529Z,1362
2018-07-21T17:13:36.520Z,1403
2018-07-21T17:14:52.497Z,1433
2018-07-21T17:16:08.466Z,1429
2018-07-21T17:17:24.448Z,1384
2018-07-21T17:18:40.450Z,1345
2018-07-21T17:19:56.534Z,1317
2018-07-21T17:21:12.752Z,1275
2018-07-21T17:22:28.904Z,1227
2018-07-21T17:23:44.928Z,1175
2018-07-21T17:25:01.020Z,1140
2018-07-21T17:26:17.029Z,1115
2018-07-21T17:27:32.988Z,1083
2018-07-21T17:28:48.930Z,1063
2018-07-21T17:30:04.887Z,1043
2018-07-21T17:31:20.867Z,1057
2018-07-21T17:32:36.856Z,1083
2018-07-21T17:33:52.820Z,1097
2018-07-21T17:35:09.844Z,1107
2018-07-21T17:36:25.891Z,1116
2018-07-21T17:37:41.840Z,1110
2018-07-21T17:38:57.971Z,1099
2018-07-21T17:40:13.919Z,1094
2018-07-21T17:41:29.907Z,1087
2018-07-21T17:42:45.936Z,1077